Time;durP1;ratioP1;P1;durP2;ratioP2;P2;SDS_P1;SDS_P2;PMS_P1;PMS_P2;Temp;Humidity;BMP_temperature;BMP_pressure;BME280_temperature;BME280_humidity;BME280_pressure;Samples;Min_cycle;Max_cycle;Signal;HPM_P1;HPM_P2
2022/08/01 00:01:27;;;;;;;;;;;18.60;99.90;;;;;;4129539;28;19926;-55
2022/08/01 00:03:30;;;;;;;;;;;18.50;99.90;;;;;;4145311;28;19925;-53
2022/08/01 00:05:32;;;;;;;;;;;18.50;99.90;;;;;;4137375;28;19980;-56
2022/08/01 00:07:35;;;;;;;;;;;18.60;99.90;;;;;;4134282;28;19922;-54
2022/08/01 00:09:38;;;;;;;;;;;18.50;99.90;;;;;;4145353;28;19929;-54
2022/08/01 00:11:42;;;;;;;;;;;18.40;99.90;;;;;;4145025;28;20305;-56
2022/08/01 00:13:45;;;;;;;;;;;18.40;99.90;;;;;;4143604;28;20329;-55
2022/08/01 00:15:50;;;;;;;;;;;18.30;99.90;;;;;;4131439;28;19921;-55
2022/08/01 00:17:57;;;;;;;;;;;18.20;99.90;;;;;;4137570;28;19928;-54
2022/08/01 00:20:03;;;;;;;;;;;18.00;99.90;;;;;;4145138;28;19928;-54
2022/08/01 00:22:05;;;;;;;;;;;17.90;99.90;;;;;;4131094;28;20591;-56
2022/08/01 00:24:07;;;;;;;;;;;17.80;99.90;;;;;;4131731;28;19928;-55
2022/08/01 00:26:09;;;;;;;;;;;18.10;99.90;;;;;;4145181;28;20389;-54
2022/08/01 00:28:13;;;;;;;;;;;18.20;99.90;;;;;;4134759;28;20393;-55
2022/08/01 00:30:15;;;;;;;;;;;18.30;99.90;;;;;;4129467;28;20340;-55
2022/08/01 00:32:16;;;;;;;;;;;18.30;99.90;;;;;;4145269;28;20590;-55
2022/08/01 00:34:19;;;;;;;;;;;18.30;99.90;;;;;;4144990;28;20020;-54
2022/08/01 00:36:21;;;;;;;;;;;18.40;99.90;;;;;;4145358;28;19921;-55
2022/08/01 00:38:22;;;;;;;;;;;18.30;99.90;;;;;;4129577;28;19984;-55
2022/08/01 00:40:24;;;;;;;;;;;18.30;99.90;;;;;;4132645;28;20625;-54
2022/08/01 00:42:26;;;;;;;;;;;18.20;99.90;;;;;;4145056;28;19925;-54
2022/08/01 00:44:28;;;;;;;;;;;18.10;99.90;;;;;;4131639;28;20074;-55
2022/08/01 00:46:31;;;;;;;;;;;18.10;99.90;;;;;;4132665;28;20008;-55
2022/08/01 00:48:33;;;;;;;;;;;18.10;99.90;;;;;;4147056;28;20016;-54
2022/08/01 00:50:35;;;;;;;;;;;18.10;99.90;;;;;;4147749;28;19921;-54
2022/08/01 00:52:38;;;;;;;;;;;18.10;99.90;;;;;;4161707;28;19925;-54
2022/08/01 00:54:40;;;;;;;;;;;18.10;99.90;;;;;;4132149;28;19970;-54
2022/08/01 00:56:42;;;;;;;;;;;18.00;99.90;;;;;;4140183;28;20412;-54
2022/08/01 00:58:44;;;;;;;;;;;18.00;99.90;;;;;;4146860;28;20389;-56
2022/08/01 01:00:46;;;;;;;;;;;18.00;99.90;;;;;;4132364;28;19926;-55
2022/08/01 01:02:54;;;;;;;;;;;17.90;99.90;;;;;;4131818;28;20349;-55
2022/08/01 01:04:55;;;;;;;;;;;17.80;99.90;;;;;;4131906;28;19930;-55
2022/08/01 01:06:57;;;;;;;;;;;17.90;99.90;;;;;;4145408;28;19921;-54
2022/08/01 01:09:03;;;;;;;;;;;17.90;99.90;;;;;;4143170;28;19925;-54
2022/08/01 01:11:09;;;;;;;;;;;17.90;99.90;;;;;;4134247;28;20303;-56
2022/08/01 01:13:25;;;;;;;;;;;17.90;99.90;;;;;;4148073;28;19929;-54
2022/08/01 01:15:31;;;;;;;;;;;17.90;99.90;;;;;;4142135;28;19926;-55
2022/08/01 01:17:36;;;;;;;;;;;17.90;99.90;;;;;;4136868;28;19976;-54
2022/08/01 01:19:53;;;;;;;;;;;17.80;99.90;;;;;;4146479;28;20028;-55
2022/08/01 01:21:55;;;;;;;;;;;17.80;99.90;;;;;;4140378;28;19922;-54
2022/08/01 01:24:13;;;;;;;;;;;17.70;99.90;;;;;;4131495;28;20238;-55
2022/08/01 01:26:25;;;;;;;;;;;17.70;99.90;;;;;;4146701;28;19928;-55
2022/08/01 01:28:32;;;;;;;;;;;17.60;99.90;;;;;;4140127;28;20329;-56
2022/08/01 01:30:37;;;;;;;;;;;17.50;99.90;;;;;;4130065;28;20395;-55
2022/08/01 01:32:41;;;;;;;;;;;17.50;99.90;;;;;;4146799;28;19971;-55
2022/08/01 01:34:44;;;;;;;;;;;17.40;99.90;;;;;;4141095;28;19965;-54
2022/08/01 01:36:47;;;;;;;;;;;17.40;99.90;;;;;;4131311;28;19922;-55
2022/08/01 01:38:50;;;;;;;;;;;17.30;99.90;;;;;;4146717;28;20390;-55
2022/08/01 01:40:53;;;;;;;;;;;17.20;99.90;;;;;;4141997;28;20441;-54
2022/08/01 01:42:56;;;;;;;;;;;17.20;99.90;;;;;;4131069;28;19928;-54
2022/08/01 01:44:58;;;;;;;;;;;17.20;99.90;;;;;;4146258;28;19987;-54
2022/08/01 01:47:00;;;;;;;;;;;17.20;99.90;;;;;;4143406;28;19975;-55
2022/08/01 01:49:04;;;;;;;;;;;17.30;99.90;;;;;;4130124;28;19929;-55
2022/08/01 01:51:06;;;;;;;;;;;17.20;99.90;;;;;;4145437;28;19956;-54
2022/08/01 01:53:10;;;;;;;;;;;17.20;99.90;;;;;;4145391;28;19936;-54
2022/08/01 01:55:16;;;;;;;;;;;17.20;99.90;;;;;;4130271;28;19925;-54
2022/08/01 01:57:19;;;;;;;;;;;17.10;99.90;;;;;;4138137;28;20083;-55
2022/08/01 01:59:24;;;;;;;;;;;17.20;99.90;;;;;;4145723;28;19921;-55
2022/08/01 02:01:45;;;;;;;;;;;17.20;99.90;;;;;;4160838;28;19991;-55
2022/08/01 02:03:59;;;;;;;;;;;17.10;99.90;;;;;;4134888;28;20270;-55
2022/08/01 02:06:02;;;;;;;;;;;17.00;99.90;;;;;;4131486;28;20400;-55
2022/08/01 02:08:04;;;;;;;;;;;17.00;99.90;;;;;;4145954;28;19930;-55
2022/08/01 02:10:08;;;;;;;;;;;17.00;99.90;;;;;;4137132;28;20344;-54
2022/08/01 02:12:11;;;;;;;;;;;17.00;99.90;;;;;;4139804;28;19927;-54
2022/08/01 02:14:14;;;;;;;;;;;16.80;99.90;;;;;;4129714;28;19929;-55
2022/08/01 02:16:16;;;;;;;;;;;16.60;99.90;;;;;;4136680;28;19976;-55
2022/08/01 02:18:18;;;;;;;;;;;16.40;99.90;;;;;;4145748;28;20071;-55
2022/08/01 02:20:21;;;;;;;;;;;16.40;99.90;;;;;;4145487;28;19925;-55
2022/08/01 02:22:28;;;;;;;;;;;16.30;99.90;;;;;;4141285;28;19925;-55
2022/08/01 02:24:48;;;;;;;;;;;16.30;99.90;;;;;;4129673;28;19922;-55
2022/08/01 02:26:51;;;;;;;;;;;16.30;99.90;;;;;;4144634;28;19975;-55
2022/08/01 02:28:56;;;;;;;;;;;16.40;99.90;;;;;;4145876;28;20356;-55
2022/08/01 02:31:03;;;;;;;;;;;16.50;99.90;;;;;;4145881;28;20437;-55
2022/08/01 02:33:08;;;;;;;;;;;16.40;99.90;;;;;;4131668;28;20337;-55
2022/08/01 02:35:26;;;;;;;;;;;16.50;99.90;;;;;;4136283;28;19929;-55
2022/08/01 02:37:29;;;;;;;;;;;16.40;99.90;;;;;;4145908;28;19960;-54
2022/08/01 02:39:31;;;;;;;;;;;16.50;99.90;;;;;;4130934;28;19926;-55
2022/08/01 02:41:38;;;;;;;;;;;16.40;99.90;;;;;;4092665;28;1222949;-54
2022/08/01 02:43:43;;;;;;;;;;;16.30;99.90;;;;;;4135982;28;20424;-56
2022/08/01 02:45:49;;;;;;;;;;;16.20;99.90;;;;;;4128871;28;19961;-55
2022/08/01 02:47:53;;;;;;;;;;;16.20;99.90;;;;;;4134477;28;20331;-55
2022/08/01 02:49:55;;;;;;;;;;;16.10;99.90;;;;;;4146093;28;19965;-54
2022/08/01 02:51:58;;;;;;;;;;;16.10;99.90;;;;;;4146081;28;20328;-56
2022/08/01 02:54:02;;;;;;;;;;;16.10;99.90;;;;;;4143495;28;20005;-54
2022/08/01 02:56:05;;;;;;;;;;;16.00;99.90;;;;;;4129880;28;19925;-55
2022/08/01 02:58:09;;;;;;;;;;;16.00;99.90;;;;;;4155203;28;19976;-54
2022/08/01 03:00:11;;;;;;;;;;;16.00;99.90;;;;;;4129716;28;20464;-54
2022/08/01 03:02:13;;;;;;;;;;;16.00;99.90;;;;;;4129867;28;19925;-55
2022/08/01 03:04:17;;;;;;;;;;;15.80;99.90;;;;;;4138165;28;19925;-55
2022/08/01 03:06:19;;;;;;;;;;;15.80;99.90;;;;;;4146247;28;19930;-56
2022/08/01 03:08:23;;;;;;;;;;;15.70;99.90;;;;;;4141432;28;20381;-55
2022/08/01 03:10:26;;;;;;;;;;;15.70;99.90;;;;;;4145417;28;19936;-55
2022/08/01 03:12:29;;;;;;;;;;;15.70;99.90;;;;;;4145900;28;19925;-55
2022/08/01 03:14:33;;;;;;;;;;;15.70;99.90;;;;;;4145865;28;19964;-54
2022/08/01 03:16:37;;;;;;;;;;;15.70;99.90;;;;;;4141440;28;20029;-55
2022/08/01 03:18:40;;;;;;;;;;;15.70;99.90;;;;;;4143894;28;19926;-55
2022/08/01 03:20:43;;;;;;;;;;;15.80;99.90;;;;;;4144536;28;19921;-55
2022/08/01 03:22:47;;;;;;;;;;;15.90;99.90;;;;;;4142699;28;19926;-55
2022/08/01 03:24:51;;;;;;;;;;;16.00;99.90;;;;;;4129803;28;20282;-55
2022/08/01 03:26:53;;;;;;;;;;;16.10;99.90;;;;;;4140256;28;19921;-55
2022/08/01 03:28:56;;;;;;;;;;;16.00;99.90;;;;;;4144902;28;19925;-54
2022/08/01 03:30:59;;;;;;;;;;;15.90;99.90;;;;;;4142429;28;19928;-55
2022/08/01 03:33:01;;;;;;;;;;;15.80;99.90;;;;;;4145847;28;19925;-54
2022/08/01 03:35:04;;;;;;;;;;;15.80;99.90;;;;;;4145680;28;19932;-55
2022/08/01 03:37:12;;;;;;;;;;;15.90;99.90;;;;;;4145625;28;19921;-54
2022/08/01 03:39:15;;;;;;;;;;;15.80;99.90;;;;;;4137963;28;19928;-54
2022/08/01 03:41:21;;;;;;;;;;;15.80;99.90;;;;;;4129165;28;20401;-55
2022/08/01 03:43:32;;;;;;;;;;;15.80;99.90;;;;;;4143954;28;19921;-55
2022/08/01 03:45:40;;;;;;;;;;;15.80;99.90;;;;;;4145602;28;19968;-56
2022/08/01 03:47:43;;;;;;;;;;;15.80;99.90;;;;;;4145836;28;19956;-56
2022/08/01 03:49:47;;;;;;;;;;;15.70;99.90;;;;;;4135042;28;19925;-56
2022/08/01 03:51:49;;;;;;;;;;;15.70;99.90;;;;;;4145605;28;19926;-54
2022/08/01 03:53:54;;;;;;;;;;;15.70;99.90;;;;;;4145722;28;19928;-54
2022/08/01 03:55:58;;;;;;;;;;;15.70;99.90;;;;;;4132047;28;19972;-56
2022/08/01 03:58:00;;;;;;;;;;;15.70;99.90;;;;;;4133562;28;19975;-56
2022/08/01 04:00:07;;;;;;;;;;;15.50;99.90;;;;;;4145329;28;19921;-56
2022/08/01 04:02:09;;;;;;;;;;;15.50;99.90;;;;;;4131744;28;19958;-55
2022/08/01 04:04:11;;;;;;;;;;;15.40;99.90;;;;;;4131520;28;19933;-55
2022/08/01 04:06:13;;;;;;;;;;;15.20;99.90;;;;;;4145147;28;19926;-55
2022/08/01 04:08:16;;;;;;;;;;;15.40;99.90;;;;;;4144950;28;20008;-55
2022/08/01 04:10:18;;;;;;;;;;;15.60;99.90;;;;;;4144622;28;20339;-55
2022/08/01 04:12:20;;;;;;;;;;;15.60;99.90;;;;;;4141842;28;19982;-56
2022/08/01 04:14:22;;;;;;;;;;;15.80;99.90;;;;;;4144805;28;20318;-54
2022/08/01 04:16:24;;;;;;;;;;;15.80;99.90;;;;;;4145235;28;19929;-55
2022/08/01 04:18:26;;;;;;;;;;;15.80;99.90;;;;;;4141307;28;20304;-55
2022/08/01 04:20:28;;;;;;;;;;;15.70;99.90;;;;;;4142141;28;19932;-55
2022/08/01 04:22:31;;;;;;;;;;;15.50;99.90;;;;;;4144528;28;19925;-54
2022/08/01 04:24:33;;;;;;;;;;;15.60;99.90;;;;;;4144825;28;20431;-55
2022/08/01 04:26:36;;;;;;;;;;;15.50;99.90;;;;;;4144714;28;19926;-54
2022/08/01 04:28:39;;;;;;;;;;;15.50;99.90;;;;;;4144913;28;19933;-56
2022/08/01 04:30:42;;;;;;;;;;;15.50;99.90;;;;;;4133992;28;19948;-56
2022/08/01 04:32:45;;;;;;;;;;;15.40;99.90;;;;;;4128989;28;20399;-54
2022/08/01 04:34:47;;;;;;;;;;;15.40;99.90;;;;;;4128793;28;19929;-57
2022/08/01 04:36:51;;;;;;;;;;;15.50;99.90;;;;;;4128679;28;19925;-54
2022/08/01 04:38:55;;;;;;;;;;;15.60;99.90;;;;;;4128723;28;20012;-56
2022/08/01 04:40:57;;;;;;;;;;;15.60;99.90;;;;;;4128429;28;20285;-54
2022/08/01 04:43:00;;;;;;;;;;;15.60;99.90;;;;;;4130170;28;19936;-55
2022/08/01 04:45:02;;;;;;;;;;;15.60;99.90;;;;;;4160172;28;19971;-55
2022/08/01 04:47:07;;;;;;;;;;;15.60;99.90;;;;;;4145264;28;19967;-55
2022/08/01 04:49:11;;;;;;;;;;;15.50;99.90;;;;;;4145141;28;19971;-54
2022/08/01 04:51:17;;;;;;;;;;;15.50;99.90;;;;;;4128340;28;19926;-55
2022/08/01 04:53:21;;;;;;;;;;;15.50;99.90;;;;;;4129018;28;19925;-56
2022/08/01 04:55:23;;;;;;;;;;;15.40;99.90;;;;;;4128538;28;20392;-55
2022/08/01 04:57:25;;;;;;;;;;;15.40;99.90;;;;;;4128612;28;19968;-54
2022/08/01 04:59:39;;;;;;;;;;;15.40;99.90;;;;;;4128527;28;19926;-55
2022/08/01 05:01:41;;;;;;;;;;;15.50;99.90;;;;;;4129014;28;19930;-55
2022/08/01 05:03:43;;;;;;;;;;;15.50;99.90;;;;;;4127410;28;19921;-55
2022/08/01 05:05:45;;;;;;;;;;;15.40;99.90;;;;;;4128963;28;19925;-55
2022/08/01 05:07:47;;;;;;;;;;;15.50;99.90;;;;;;4135275;28;19964;-56
2022/08/01 05:09:50;;;;;;;;;;;15.50;99.90;;;;;;4144377;28;20433;-55
2022/08/01 05:11:53;;;;;;;;;;;15.50;99.90;;;;;;4143322;28;20409;-55
2022/08/01 05:13:55;;;;;;;;;;;15.70;99.90;;;;;;4144219;28;19968;-54
2022/08/01 05:15:57;;;;;;;;;;;15.70;99.90;;;;;;4144736;28;20023;-57
2022/08/01 05:17:59;;;;;;;;;;;15.80;99.90;;;;;;4144621;28;19921;-57
2022/08/01 05:20:01;;;;;;;;;;;15.90;99.90;;;;;;4144473;28;20449;-57
2022/08/01 05:22:04;;;;;;;;;;;16.00;99.90;;;;;;4144630;28;19925;-57
2022/08/01 05:24:06;;;;;;;;;;;15.90;99.90;;;;;;4144435;28;20036;-55
2022/08/01 05:26:10;;;;;;;;;;;16.00;99.90;;;;;;4144769;28;19925;-56
2022/08/01 05:28:11;;;;;;;;;;;16.00;99.90;;;;;;4144684;28;20634;-57
2022/08/01 05:30:13;;;;;;;;;;;16.00;99.90;;;;;;4144412;28;19931;-57
2022/08/01 05:32:15;;;;;;;;;;;16.10;99.90;;;;;;4157392;28;19971;-56
2022/08/01 05:34:17;;;;;;;;;;;16.20;99.90;;;;;;4129800;28;20353;-57
2022/08/01 05:36:19;;;;;;;;;;;16.20;99.90;;;;;;4140485;28;19925;-57
2022/08/01 05:38:21;;;;;;;;;;;16.20;99.90;;;;;;4147449;28;19933;-56
2022/08/01 05:40:23;;;;;;;;;;;16.30;99.90;;;;;;4129301;28;19922;-57
2022/08/01 05:42:26;;;;;;;;;;;16.40;99.90;;;;;;4139322;28;19925;-56
2022/08/01 05:44:28;;;;;;;;;;;16.40;99.90;;;;;;4144042;28;19925;-56
2022/08/01 05:46:30;;;;;;;;;;;16.50;99.90;;;;;;4147535;28;19925;-57
2022/08/01 05:48:32;;;;;;;;;;;16.50;99.90;;;;;;4142505;28;19961;-56
2022/08/01 05:50:34;;;;;;;;;;;16.50;99.90;;;;;;4142284;28;19932;-56
2022/08/01 05:52:36;;;;;;;;;;;16.60;99.90;;;;;;4147210;28;20027;-58
2022/08/01 05:54:38;;;;;;;;;;;16.70;99.90;;;;;;4144710;28;19968;-57
2022/08/01 05:56:40;;;;;;;;;;;16.80;99.90;;;;;;4130852;28;19926;-56
2022/08/01 05:58:42;;;;;;;;;;;16.90;99.90;;;;;;4140307;28;19925;-56
2022/08/01 06:00:44;;;;;;;;;;;17.10;99.90;;;;;;4146847;28;20012;-57
2022/08/01 06:02:46;;;;;;;;;;;17.10;99.90;;;;;;4131028;28;19965;-58
2022/08/01 06:04:48;;;;;;;;;;;17.30;99.90;;;;;;4138198;28;19952;-58
2022/08/01 06:06:50;;;;;;;;;;;17.40;99.90;;;;;;4145891;28;19925;-56
2022/08/01 06:08:52;;;;;;;;;;;17.50;99.90;;;;;;4146200;28;19921;-57
2022/08/01 06:10:54;;;;;;;;;;;17.60;99.90;;;;;;4145844;28;19925;-56
2022/08/01 06:12:56;;;;;;;;;;;17.80;99.90;;;;;;4147055;28;19996;-57
2022/08/01 06:14:58;;;;;;;;;;;18.10;99.90;;;;;;4146329;28;20404;-57
2022/08/01 06:17:00;;;;;;;;;;;18.40;99.90;;;;;;4146177;28;20269;-57
2022/08/01 06:19:02;;;;;;;;;;;18.60;99.90;;;;;;4140828;28;19922;-57
2022/08/01 06:21:05;;;;;;;;;;;18.80;99.90;;;;;;4140190;28;19929;-56
2022/08/01 06:23:15;;;;;;;;;;;18.90;99.90;;;;;;4150815;28;19928;-56
2022/08/01 06:25:33;;;;;;;;;;;19.10;99.90;;;;;;4144921;28;19931;-58
2022/08/01 06:27:35;;;;;;;;;;;19.30;99.90;;;;;;4144279;28;19926;-56
2022/08/01 06:29:40;;;;;;;;;;;19.40;99.90;;;;;;4142001;28;19925;-57
2022/08/01 06:31:42;;;;;;;;;;;19.50;99.90;;;;;;4145811;28;19983;-58
2022/08/01 06:33:44;;;;;;;;;;;19.80;99.90;;;;;;4144300;28;19925;-56
2022/08/01 06:35:46;;;;;;;;;;;19.90;99.90;;;;;;4146666;28;20484;-56
2022/08/01 06:37:48;;;;;;;;;;;20.20;99.90;;;;;;4130319;28;19976;-56
2022/08/01 06:39:51;;;;;;;;;;;20.60;99.90;;;;;;4137275;28;20008;-57
2022/08/01 06:41:52;;;;;;;;;;;20.90;99.90;;;;;;4144565;28;20074;-56
2022/08/01 06:43:55;;;;;;;;;;;21.00;99.90;;;;;;4144036;28;19975;-57
2022/08/01 06:45:56;;;;;;;;;;;21.20;99.90;;;;;;4137980;28;19922;-56
2022/08/01 06:47:59;;;;;;;;;;;21.60;99.90;;;;;;4132228;28;19922;-58
2022/08/01 06:50:01;;;;;;;;;;;21.80;99.90;;;;;;4129841;28;20032;-56
2022/08/01 06:52:03;;;;;;;;;;;21.70;99.90;;;;;;4132567;28;19922;-57
2022/08/01 06:54:06;;;;;;;;;;;21.60;99.90;;;;;;4146554;28;19928;-56
2022/08/01 06:56:08;;;;;;;;;;;21.60;99.90;;;;;;4136953;28;20000;-57
2022/08/01 06:58:10;;;;;;;;;;;21.70;99.90;;;;;;4130994;28;19930;-57
2022/08/01 07:00:13;;;;;;;;;;;21.70;99.90;;;;;;4130135;28;20008;-57
2022/08/01 07:02:15;;;;;;;;;;;21.80;99.90;;;;;;4137486;28;19983;-57
2022/08/01 07:04:21;;;;;;;;;;;22.10;99.90;;;;;;4145999;28;20011;-56
2022/08/01 07:06:24;;;;;;;;;;;22.20;99.90;;;;;;4130952;28;19925;-57
2022/08/01 07:08:26;;;;;;;;;;;22.40;99.90;;;;;;4141550;28;19922;-57
2022/08/01 07:10:29;;;;;;;;;;;22.60;99.90;;;;;;4146513;28;19975;-56
2022/08/01 07:12:33;;;;;;;;;;;22.80;99.90;;;;;;4145982;28;19977;-57
2022/08/01 07:14:35;;;;;;;;;;;23.00;99.90;;;;;;4142757;28;20020;-57
2022/08/01 07:16:38;;;;;;;;;;;23.10;99.50;;;;;;4146617;28;19925;-57
2022/08/01 07:18:40;;;;;;;;;;;23.40;98.10;;;;;;4145919;28;19921;-56
2022/08/01 07:20:45;;;;;;;;;;;23.50;97.60;;;;;;4143695;28;20309;-59
2022/08/01 07:22:52;;;;;;;;;;;23.70;96.90;;;;;;4130070;28;19929;-56
2022/08/01 07:24:55;;;;;;;;;;;23.80;96.30;;;;;;4139996;28;19921;-57
2022/08/01 07:26:57;;;;;;;;;;;24.00;94.70;;;;;;4145377;28;20004;-56
2022/08/01 07:29:00;;;;;;;;;;;24.10;94.60;;;;;;4129742;28;19972;-56
2022/08/01 07:31:02;;;;;;;;;;;24.50;94.40;;;;;;4137623;28;19921;-56
2022/08/01 07:33:04;;;;;;;;;;;24.60;94.80;;;;;;4145923;28;19922;-58
2022/08/01 07:35:06;;;;;;;;;;;25.00;95.30;;;;;;4130750;28;19925;-56
2022/08/01 07:37:08;;;;;;;;;;;25.20;95.40;;;;;;4135400;28;19921;-57
2022/08/01 07:39:10;;;;;;;;;;;25.20;94.80;;;;;;4145994;28;19925;-56
2022/08/01 07:41:13;;;;;;;;;;;25.50;94.10;;;;;;4132324;28;19964;-59
2022/08/01 07:43:15;;;;;;;;;;;25.60;93.60;;;;;;4133170;28;20407;-57
2022/08/01 07:45:18;;;;;;;;;;;25.60;92.90;;;;;;4145666;28;19975;-57
2022/08/01 07:47:26;;;;;;;;;;;25.70;92.80;;;;;;4145415;28;19975;-59
2022/08/01 07:49:30;;;;;;;;;;;25.80;92.00;;;;;;4145377;28;20020;-57
2022/08/01 07:51:35;;;;;;;;;;;25.90;93.10;;;;;;4146063;28;20372;-57
2022/08/01 07:53:38;;;;;;;;;;;26.10;91.80;;;;;;4145457;28;19931;-59
2022/08/01 07:55:40;;;;;;;;;;;26.30;92.10;;;;;;4159708;28;19925;-57
2022/08/01 07:57:42;;;;;;;;;;;26.60;92.80;;;;;;4128654;28;19925;-58
2022/08/01 07:59:44;;;;;;;;;;;26.70;91.60;;;;;;4127832;28;19922;-58
2022/08/01 08:01:46;;;;;;;;;;;27.10;90.90;;;;;;4129296;28;19921;-57
2022/08/01 08:03:48;;;;;;;;;;;27.50;90.20;;;;;;4144193;28;19932;-59
2022/08/01 08:05:50;;;;;;;;;;;27.20;90.60;;;;;;4139592;28;19926;-56
2022/08/01 08:07:59;;;;;;;;;;;27.40;91.50;;;;;;4137691;28;20032;-56
2022/08/01 08:10:01;;;;;;;;;;;27.50;88.90;;;;;;4145301;28;20369;-58
2022/08/01 08:12:04;;;;;;;;;;;27.80;91.20;;;;;;4140152;28;20000;-57
2022/08/01 08:14:07;;;;;;;;;;;27.90;91.10;;;;;;4128981;28;19925;-57
2022/08/01 08:16:08;;;;;;;;;;;28.20;90.40;;;;;;4128934;28;20435;-57
2022/08/01 08:18:11;;;;;;;;;;;28.70;90.90;;;;;;4139364;28;19971;-59
2022/08/01 08:20:13;;;;;;;;;;;29.10;89.20;;;;;;4145238;28;19944;-56
2022/08/01 08:22:16;;;;;;;;;;;29.20;89.30;;;;;;4135233;28;20007;-58
2022/08/01 08:24:21;;;;;;;;;;;29.30;86.20;;;;;;4128957;28;19936;-57
2022/08/01 08:26:27;;;;;;;;;;;29.30;85.00;;;;;;4144348;28;19957;-57
2022/08/01 08:28:29;;;;;;;;;;;29.20;85.30;;;;;;4136455;28;20435;-57
2022/08/01 08:30:31;;;;;;;;;;;29.10;86.60;;;;;;4128636;28;19926;-58
2022/08/01 08:32:34;;;;;;;;;;;29.20;86.30;;;;;;4142493;28;19925;-57
2022/08/01 08:34:36;;;;;;;;;;;29.40;87.90;;;;;;4143775;28;20269;-57
2022/08/01 08:36:38;;;;;;;;;;;29.80;87.60;;;;;;4138599;28;19925;-57
2022/08/01 08:38:40;;;;;;;;;;;30.10;81.70;;;;;;4137565;28;20286;-58
2022/08/01 08:40:42;;;;;;;;;;;30.30;86.10;;;;;;4135813;28;19921;-58
2022/08/01 08:42:46;;;;;;;;;;;30.60;83.90;;;;;;4144005;28;19960;-59
2022/08/01 08:44:48;;;;;;;;;;;30.50;83.20;;;;;;4135041;28;20306;-58
2022/08/01 08:46:51;;;;;;;;;;;30.70;79.50;;;;;;4133136;28;19932;-57
2022/08/01 08:48:53;;;;;;;;;;;30.10;76.90;;;;;;4141606;28;19984;-57
2022/08/01 08:50:57;;;;;;;;;;;30.30;76.50;;;;;;4141424;28;19991;-59
2022/08/01 08:53:00;;;;;;;;;;;30.70;79.80;;;;;;4141207;28;19929;-57
2022/08/01 08:55:02;;;;;;;;;;;31.00;80.80;;;;;;4128949;28;19925;-57
2022/08/01 08:57:05;;;;;;;;;;;30.90;76.40;;;;;;4136988;28;19921;-58
2022/08/01 08:59:07;;;;;;;;;;;31.00;77.20;;;;;;4132490;28;19925;-59
2022/08/01 09:01:09;;;;;;;;;;;30.90;77.50;;;;;;4143065;28;19926;-57
2022/08/01 09:03:12;;;;;;;;;;;31.10;81.10;;;;;;4143511;28;19921;-57
2022/08/01 09:05:14;;;;;;;;;;;31.10;77.70;;;;;;4143874;28;20470;-56
2022/08/01 09:07:40;;;;;;;;;;;31.10;75.10;;;;;;4136417;28;19932;-57
2022/08/01 09:09:42;;;;;;;;;;;31.40;77.20;;;;;;4136736;28;19921;-57
2022/08/01 09:11:44;;;;;;;;;;;31.60;73.90;;;;;;4141748;28;19926;-57
2022/08/01 09:14:01;;;;;;;;;;;31.80;75.40;;;;;;4136462;28;19976;-57
2022/08/01 09:16:04;;;;;;;;;;;31.80;74.30;;;;;;4142232;28;19979;-57
2022/08/01 09:18:07;;;;;;;;;;;32.00;72.40;;;;;;4144377;28;19976;-57
2022/08/01 09:20:21;;;;;;;;;;;32.20;72.80;;;;;;4138794;28;19956;-58
2022/08/01 09:22:24;;;;;;;;;;;32.20;74.10;;;;;;4140539;28;20383;-57
2022/08/01 09:24:26;;;;;;;;;;;32.40;70.20;;;;;;4133129;28;20012;-58
2022/08/01 09:26:32;;;;;;;;;;;32.30;69.70;;;;;;4149891;28;20354;-58
2022/08/01 09:28:35;;;;;;;;;;;32.00;70.80;;;;;;4142938;28;19983;-57
2022/08/01 09:30:38;;;;;;;;;;;31.90;72.90;;;;;;4143695;28;19921;-57
2022/08/01 09:32:58;;;;;;;;;;;31.90;69.40;;;;;;4136479;28;19940;-57
2022/08/01 09:35:18;;;;;;;;;;;31.80;67.70;;;;;;4144492;28;20151;-58
2022/08/01 09:37:30;;;;;;;;;;;32.10;72.70;;;;;;4139623;28;20007;-57
2022/08/01 09:39:39;;;;;;;;;;;32.30;71.10;;;;;;4147109;28;19980;-58
2022/08/01 09:41:42;;;;;;;;;;;32.30;68.20;;;;;;4134657;28;19965;-58
2022/08/01 09:43:49;;;;;;;;;;;32.50;67.60;;;;;;4140587;28;19921;-57
2022/08/01 09:45:51;;;;;;;;;;;32.80;68.50;;;;;;4132870;28;20472;-57
2022/08/01 09:47:54;;;;;;;;;;;32.80;70.50;;;;;;4134319;28;20000;-58
2022/08/01 09:49:56;;;;;;;;;;;32.80;68.60;;;;;;4141715;28;19944;-57
2022/08/01 09:52:09;;;;;;;;;;;32.90;68.70;;;;;;4138121;28;20050;-56
2022/08/01 09:54:11;;;;;;;;;;;32.90;65.90;;;;;;4133809;28;19936;-57
2022/08/01 09:56:13;;;;;;;;;;;33.40;71.60;;;;;;4136902;28;20373;-57
2022/08/01 09:58:15;;;;;;;;;;;33.50;69.80;;;;;;4135205;28;20262;-58
2022/08/01 10:00:18;;;;;;;;;;;33.10;66.70;;;;;;4135237;28;20016;-59
2022/08/01 10:02:42;;;;;;;;;;;33.00;68.10;;;;;;4139302;28;20487;-57
2022/08/01 10:04:48;;;;;;;;;;;33.10;66.00;;;;;;4145709;28;20373;-58
2022/08/01 10:06:54;;;;;;;;;;;32.70;67.30;;;;;;4136959;28;20012;-57
2022/08/01 10:08:56;;;;;;;;;;;33.20;65.60;;;;;;4139157;28;19921;-59
2022/08/01 10:11:06;;;;;;;;;;;33.40;64.90;;;;;;4138118;28;19992;-58
2022/08/01 10:13:08;;;;;;;;;;;33.50;66.20;;;;;;4153879;28;19921;-57
2022/08/01 10:15:10;;;;;;;;;;;33.70;67.40;;;;;;4142028;28;19929;-57
2022/08/01 10:17:16;;;;;;;;;;;34.30;68.90;;;;;;4144937;28;20177;-57
2022/08/01 10:19:21;;;;;;;;;;;34.20;63.10;;;;;;4138615;28;20346;-57
2022/08/01 10:21:25;;;;;;;;;;;34.00;64.60;;;;;;4138136;28;19921;-57
2022/08/01 10:23:47;;;;;;;;;;;34.00;65.10;;;;;;4142002;28;19925;-57
2022/08/01 10:25:50;;;;;;;;;;;33.70;63.50;;;;;;4144556;28;20518;-58
2022/08/01 10:27:56;;;;;;;;;;;33.70;67.20;;;;;;4130247;28;19948;-58
2022/08/01 10:30:07;;;;;;;;;;;34.10;67.20;;;;;;4131732;28;19921;-57
2022/08/01 10:32:22;;;;;;;;;;;34.30;63.00;;;;;;4135087;28;20389;-57
2022/08/01 10:34:24;;;;;;;;;;;33.60;61.90;;;;;;4146467;28;20365;-58
2022/08/01 10:36:27;;;;;;;;;;;33.50;62.60;;;;;;4141346;28;19922;-57
2022/08/01 10:38:29;;;;;;;;;;;33.50;62.10;;;;;;4145091;28;20368;-59
2022/08/01 10:40:31;;;;;;;;;;;34.20;65.40;;;;;;4146331;28;19997;-57
2022/08/01 10:42:34;;;;;;;;;;;34.40;62.80;;;;;;4146461;28;19948;-58
2022/08/01 10:44:36;;;;;;;;;;;34.90;62.50;;;;;;4145408;28;20365;-57
2022/08/01 10:46:42;;;;;;;;;;;34.70;62.20;;;;;;4130866;28;19921;-58
2022/08/01 10:48:52;;;;;;;;;;;34.40;61.90;;;;;;4138681;28;19921;-57
2022/08/01 10:50:57;;;;;;;;;;;34.80;65.20;;;;;;4146519;28;19922;-58
2022/08/01 10:53:18;;;;;;;;;;;35.00;62.90;;;;;;4136867;28;19925;-56
2022/08/01 10:55:24;;;;;;;;;;;35.20;61.40;;;;;;4139571;28;20372;-58
2022/08/01 10:57:40;;;;;;;;;;;34.90;61.30;;;;;;4140636;28;19925;-57
2022/08/01 10:59:50;;;;;;;;;;;34.90;62.20;;;;;;4145835;28;19925;-58
2022/08/01 11:02:04;;;;;;;;;;;34.90;62.50;;;;;;4136652;28;19972;-58
2022/08/01 11:04:10;;;;;;;;;;;35.40;60.10;;;;;;4131474;28;20297;-59
2022/08/01 11:06:18;;;;;;;;;;;35.50;61.10;;;;;;4134977;28;19940;-56
2022/08/01 11:08:22;;;;;;;;;;;35.30;61.30;;;;;;4140933;28;20189;-57
2022/08/01 11:10:29;;;;;;;;;;;35.50;62.50;;;;;;4145620;28;19921;-56
2022/08/01 11:12:39;;;;;;;;;;;35.70;62.80;;;;;;4145036;28;19952;-57
2022/08/01 11:15:00;;;;;;;;;;;34.90;62.30;;;;;;4143757;28;19965;-57
2022/08/01 11:17:25;;;;;;;;;;;35.20;59.40;;;;;;4138727;28;19980;-57
2022/08/01 11:19:46;;;;;;;;;;;35.20;59.70;;;;;;4130096;28;20317;-58
2022/08/01 11:21:59;;;;;;;;;;;35.90;65.30;;;;;;4129715;28;19928;-56
2022/08/01 11:24:02;;;;;;;;;;;36.20;59.10;;;;;;4138122;28;20097;-57
2022/08/01 11:26:03;;;;;;;;;;;36.60;60.80;;;;;;4146122;28;19921;-58
2022/08/01 11:28:15;;;;;;;;;;;36.90;62.80;;;;;;4129609;28;19925;-56
2022/08/01 11:30:29;;;;;;;;;;;36.60;58.20;;;;;;4138439;28;20657;-58
2022/08/01 11:32:31;;;;;;;;;;;36.20;57.60;;;;;;4160240;28;19928;-59
2022/08/01 11:34:54;;;;;;;;;;;36.20;60.30;;;;;;4144320;28;19921;-58
2022/08/01 11:37:14;;;;;;;;;;;35.70;59.90;;;;;;4129300;28;20013;-58
2022/08/01 11:39:17;;;;;;;;;;;36.30;63.20;;;;;;4132587;28;20396;-55
2022/08/01 11:41:30;;;;;;;;;;;36.50;57.20;;;;;;4146748;28;19925;-56
2022/08/01 11:43:55;;;;;;;;;;;36.10;58.80;;;;;;4139633;28;19921;-56
2022/08/01 11:45:56;;;;;;;;;;;36.00;60.00;;;;;;4140536;28;20020;-56
2022/08/01 11:47:58;;;;;;;;;;;36.50;61.40;;;;;;4144563;28;19921;-56
2022/08/01 11:50:01;;;;;;;;;;;36.90;59.90;;;;;;4145365;28;19947;-55
2022/08/01 11:52:09;;;;;;;;;;;36.70;58.60;;;;;;4142423;28;19928;-56
2022/08/01 11:54:11;;;;;;;;;;;36.10;61.40;;;;;;4129289;28;19926;-57
2022/08/01 11:56:13;;;;;;;;;;;36.80;59.20;;;;;;4139825;28;20264;-55
2022/08/01 11:58:15;;;;;;;;;;;36.40;56.60;;;;;;4145345;28;20336;-56
2022/08/01 12:00:23;;;;;;;;;;;36.70;59.20;;;;;;4145360;28;20340;-56
2022/08/01 12:02:33;;;;;;;;;;;37.10;60.70;;;;;;4134773;28;19952;-56
2022/08/01 12:04:53;;;;;;;;;;;37.00;55.50;;;;;;4130419;28;19980;-56